Saratoga, CA

1:44 AM PDT on October 26, 2014 (GMT -0700)
Scotland Dr. near Glasgow Dr. | Change Station
CLOSE
Current Station
Personal Weather Station
Location: Saratoga, CA
Elevation: 375 ft
Nearby Weather Stations

Elev 375 ft 37.27 °N, 122.02 °W | Updated 10 seconds ago

Partly Cloudy
Partly Cloudy
52.5 °F
Feels Like 52.5 °F
N
0.0
Wind Variable Wind from WSW
Gusts 0.0 mph

Today
High -- | Low -- °F
--% Chance of Precip.
Yesterday
High -- | Low -- °F
Precip. -- in
7:26 AM 6:16 PM
Waxing Crescent, 6% visible
Pressure 30.15 in
Visibility 10.0 miles
Clouds Mostly Cloudy 2400 ft
Dew Point 49 °F
Humidity 89%
Rainfall 0.00 in
Snow Depth Not available.
UV 0.0 out of 12
Pollen .10 out of 12
Ozone Good
PM2.5 Good
Flu Activity Sporadic
METAR KSJC 260753Z AUTO 00000KT 10SM BKN024 13/12 A3015 RMK AO2 SLP210 T01330117 402170133

More Conditions Fewer Conditions

Pressure 30.15 in
Visibility 10.0 miles
Clouds Mostly Cloudy 2400 ft
Dew Point 49 °F
Humidity 89%
Rainfall 0.00 in
Snow Depth Not available.
UV 0.0 out of 12
Pollen .10 out of 12
Ozone Good
PM2.5 Good
Flu Activity Sporadic
METAR KSJC 260753Z AUTO 00000KT 10SM BKN024 13/12 A3015 RMK AO2 SLP210 T01330117 402170133

More Conditions Fewer Conditions

10-Day Weather Forecast

Almanac

Astronomy

Oct. 26, 2014 Rise Set
Actual Time 7:26 AM PDT 6:16 PM PDT
Civil Twilight 6:59 AM PDT 6:43 PM PDT
Nautical Twilight 6:29 AM PDT 7:14 PM PDT
Astronomical Twilight 5:59 AM PDT 7:44 PM PDT
Moon 10:07 AM PDT 8:35 PM PDT
Length of Visible Light 11h 43m
Length of Day
10h 50m
Tomorrow will be 2m 11s shorter.
Waxing Crescent, 6% of the Moon is Illuminated
Today
Waxing Crescent
Oct 30
First Quarter
Nov 6
Full
Nov 14
Last Quarter
Nov 22
New

Today's Extremes

State Highs State Lows

Community

WunderPhotos

Upload Photos

1,765,127 photos uploaded!

Nearby

Air Quality

  Air Quality AQ Index Pollutant
Yesterday Good
OZONE
Yesterday Good
PM2.5
Current Good
PM2.5
Current Good
OZONE
Sunday Good
OZONE
Monday Good
PM2.5
Tuesday Moderate
PM2.5
Wednesday Moderate
PM2.5

Snow Depth

Station Depth Elevation
Blue Lakes 0 in 8000 ft
Leavitt Lake 2 in 9400 ft
Carson Pass 2 in 8500 ft
Ebbetts Pass 3 in 8700 ft
Sonora Pass 0 in 8800 ft

Earthquake Activity

City Distance Mag. Time & Date
Antioch, California 55 miles 2.7 6:42 AM PDT
2014-10-25
Deer Park, California 89 miles 2.8 6:40 AM PDT
2014-10-25
Coalinga, California 122 miles 2.5 11:01 PM PDT
2014-10-24
Minimum magnitude displayed is 2.5.

Coastal Water Temperatures

Place Temperature
No Stations Reporting

Nearby Weather Stations